Time;durP1;ratioP1;P1;durP2;ratioP2;P2;SDS_P1;SDS_P2;PMS_P1;PMS_P2;Temp;Humidity;BMP_temperature;BMP_pressure;BME280_temperature;BME280_humidity;BME280_pressure;Samples;Min_cycle;Max_cycle;Signal;HPM_P1;HPM_P2
2023/04/11 00:00:09;;;;;;;5.35;3.13;;;;;;;12.27;52.82;100637.38;5059051;28;20032;-70
2023/04/11 00:02:37;;;;;;;5.03;2.97;;;;;;;12.35;52.70;100637.16;5062840;28;20472;-70
2023/04/11 00:05:04;;;;;;;12.45;2.92;;;;;;;12.27;52.49;100623.06;5059495;28;20447;-70
2023/04/11 00:07:29;;;;;;;6.90;3.13;;;;;;;12.23;52.97;100618.09;5041039;28;20029;-70
2023/04/11 00:09:55;;;;;;;7.05;3.10;;;;;;;12.18;52.84;100607.13;5057648;28;20036;-70
2023/04/11 00:12:20;;;;;;;6.05;3.20;;;;;;;12.44;52.49;100610.72;5041691;28;20025;-70
2023/04/11 00:14:47;;;;;;;9.55;3.30;;;;;;;12.37;52.59;100591.06;5040731;28;20031;-70
2023/04/11 00:17:16;;;;;;;10.88;3.40;;;;;;;11.96;54.18;100589.59;5059091;28;20029;-70
2023/04/11 00:19:44;;;;;;;8.75;3.47;;;;;;;12.31;52.98;100595.44;5058345;28;20064;-70
2023/04/11 00:22:10;;;;;;;9.75;3.33;;;;;;;12.54;52.34;100602.16;5059001;28;20083;-70
2023/04/11 00:24:36;;;;;;;9.98;3.10;;;;;;;12.35;53.03;100590.44;5058370;28;20029;-70
2023/04/11 00:27:01;;;;;;;6.35;3.15;;;;;;;12.27;53.54;100571.81;5057510;28;20111;-70
2023/04/11 00:29:27;;;;;;;5.82;2.97;;;;;;;12.31;52.92;100549.56;5057718;28;20494;-70
2023/04/11 00:31:54;;;;;;;4.93;3.10;;;;;;;12.32;53.20;100566.63;5057062;28;20075;-70
2023/04/11 00:34:20;;;;;;;5.10;3.08;;;;;;;12.13;54.03;100561.09;5041791;28;20041;-70
2023/04/11 00:36:46;;;;;;;4.47;3.10;;;;;;;12.34;53.26;100551.00;5057592;28;20417;-70
2023/04/11 00:39:12;;;;;;;7.20;3.20;;;;;;;12.14;53.57;100534.94;5040156;28;20059;-70
2023/04/11 00:41:37;;;;;;;7.32;3.58;;;;;;;12.32;53.54;100540.47;5057327;28;20024;-70
2023/04/11 00:44:03;;;;;;;7.28;3.70;;;;;;;12.26;53.98;100544.00;5057723;28;20044;-70
2023/04/11 00:46:29;;;;;;;6.65;3.40;;;;;;;12.26;53.82;100540.50;5063948;28;20128;-70
2023/04/11 00:48:55;;;;;;;5.40;3.35;;;;;;;12.44;53.22;100538.69;5057839;28;20369;-70
2023/04/11 00:51:21;;;;;;;6.63;3.20;;;;;;;12.37;53.42;100529.00;5040323;28;20029;-70
2023/04/11 00:53:46;;;;;;;5.82;3.20;;;;;;;11.82;55.09;100493.59;5058085;28;20071;-69
2023/04/11 00:56:12;;;;;;;4.00;2.95;;;;;;;12.27;53.92;100520.56;5058167;28;20028;-70
2023/04/11 00:58:39;;;;;;;6.43;3.50;;;;;;;12.35;53.59;100504.94;5056575;28;20028;-70
2023/04/11 01:01:08;;;;;;;10.68;3.53;;;;;;;11.90;54.61;100499.59;5056633;28;20033;-69
2023/04/11 01:03:44;;;;;;;7.43;3.30;;;;;;;12.02;54.74;100501.59;5056774;28;20053;-70
2023/04/11 01:06:11;;;;;;;6.50;3.05;;;;;;;12.36;53.80;100497.69;5056794;28;20033;-70
2023/04/11 01:08:37;;;;;;;5.72;3.28;;;;;;;12.37;53.62;100496.63;5058116;28;20033;-69
2023/04/11 01:11:04;;;;;;;5.68;3.38;;;;;;;12.10;54.66;100488.69;5056801;28;20021;-70
2023/04/11 01:13:32;;;;;;;6.80;3.45;;;;;;;12.06;54.56;100482.09;5042744;28;20060;-70
2023/04/11 01:15:57;;;;;;;6.05;3.25;;;;;;;12.09;54.69;100497.03;5071039;28;20036;-70
2023/04/11 01:18:24;;;;;;;8.02;3.47;;;;;;;12.14;54.48;100472.91;5056462;28;20061;-70
2023/04/11 01:20:50;;;;;;;4.10;2.90;;;;;;;12.40;53.53;100483.50;5052315;28;20094;-70
2023/04/11 01:23:26;;;;;;;6.60;3.30;;;;;;;12.13;54.45;100476.66;5061746;28;20024;-69
2023/04/11 01:25:52;;;;;;;7.05;3.47;;;;;;;11.87;55.10;100469.56;5057126;28;20036;-70
2023/04/11 01:28:18;;;;;;;5.75;3.35;;;;;;;12.26;54.18;100462.25;5061369;28;20025;-70
2023/04/11 01:30:44;;;;;;;4.18;3.13;;;;;;;12.15;54.39;100461.06;5061780;28;20028;-70
2023/04/11 01:33:11;;;;;;;5.55;3.13;;;;;;;12.20;53.85;100451.28;5060856;28;20118;-70
2023/04/11 01:35:37;;;;;;;5.65;3.38;;;;;;;12.05;54.71;100439.97;5061344;28;20029;-70
2023/04/11 01:38:03;;;;;;;7.90;3.63;;;;;;;12.23;54.07;100447.34;5060521;28;20032;-70
2023/04/11 01:40:31;;;;;;;4.95;3.47;;;;;;;12.20;54.44;100439.69;5060380;28;20040;-70
2023/04/11 01:42:58;;;;;;;5.32;3.55;;;;;;;12.10;54.97;100432.06;5044026;28;20086;-70
2023/04/11 01:45:28;;;;;;;5.10;3.50;;;;;;;11.91;55.04;100425.75;5060664;28;20025;-70
2023/04/11 01:47:53;;;;;;;5.82;3.97;;;;;;;11.77;55.96;100408.81;5060258;28;20048;-70
2023/04/11 01:50:19;;;;;;;4.07;3.25;;;;;;;12.13;54.72;100415.44;5061142;28;20036;-70
2023/04/11 01:52:46;;;;;;;5.53;3.75;;;;;;;12.46;53.77;100419.75;5062229;28;20020;-70
2023/04/11 01:55:12;;;;;;;8.65;4.53;;;;;;;12.24;54.58;100400.41;5059763;28;20031;-69
2023/04/11 01:57:37;;;;;;;6.70;3.85;;;;;;;12.19;54.77;100400.28;5043122;28;20116;-70
2023/04/11 02:00:05;;;;;;;6.88;3.88;;;;;;;12.01;55.20;100390.22;5067144;28;20053;-70
2023/04/11 02:02:30;;;;;;;5.18;3.42;;;;;;;12.23;54.70;100404.19;5069676;28;20052;-70
2023/04/11 02:04:56;;;;;;;4.90;3.80;;;;;;;12.30;54.20;100390.63;5058823;28;20029;-70
2023/04/11 02:07:22;;;;;;;4.93;3.50;;;;;;;12.28;54.14;100390.00;5058982;28;20356;-70
2023/04/11 02:09:48;;;;;;;7.15;4.35;;;;;;;12.31;54.05;100362.59;5057927;28;20448;-70
2023/04/11 02:12:13;;;;;;;5.78;4.13;;;;;;;12.50;53.53;100383.19;5061936;28;20051;-70
2023/04/11 02:14:43;;;;;;;9.32;3.60;;;;;;;11.85;55.82;100374.56;5059258;28;20090;-70
2023/04/11 02:17:09;;;;;;;3.88;3.33;;;;;;;11.69;56.73;100368.66;5042242;28;20040;-69
2023/04/11 02:19:40;;;;;;;5.70;4.03;;;;;;;12.18;54.50;100361.66;5060622;28;20071;-70
2023/04/11 02:22:07;;;;;;;5.28;3.75;;;;;;;12.46;54.20;100368.50;5058930;28;20025;-69
2023/04/11 02:24:33;;;;;;;6.95;4.13;;;;;;;12.17;55.15;100356.50;5056109;28;20025;-70
2023/04/11 02:27:00;;;;;;;8.50;4.47;;;;;;;11.81;56.19;100339.09;5058804;28;20043;-70
2023/04/11 02:29:26;;;;;;;6.15;4.45;;;;;;;12.27;55.38;100362.22;5061036;28;20064;-70
2023/04/11 02:31:52;;;;;;;7.00;4.25;;;;;;;12.01;56.36;100343.56;5060794;28;20023;-70
2023/04/11 02:34:20;;;;;;;7.57;4.50;;;;;;;12.42;55.25;100356.50;5060731;28;20060;-69
2023/04/11 02:36:45;;;;;;;5.28;4.32;;;;;;;12.46;54.62;100341.50;5059965;28;20025;-70
2023/04/11 02:39:11;;;;;;;5.32;4.55;;;;;;;12.23;55.43;100334.84;5057869;28;20414;-69
2023/04/11 02:41:38;;;;;;;7.15;4.35;;;;;;;12.58;54.28;100328.94;5059830;28;20040;-70
2023/04/11 02:44:03;;;;;;;5.72;4.10;;;;;;;12.61;54.16;100333.84;5060117;28;20409;-70
2023/04/11 02:46:29;;;;;;;6.72;4.00;;;;;;;12.39;54.26;100305.66;5058676;28;20082;-69
2023/04/11 02:48:54;;;;;;;5.55;4.10;;;;;;;12.39;54.61;100324.56;5055986;28;20052;-69
2023/04/11 02:51:20;;;;;;;6.65;4.18;;;;;;;12.37;54.75;100305.88;5040709;28;20025;-70
2023/04/11 02:53:45;;;;;;;6.97;4.00;;;;;;;12.37;54.40;100307.75;5059922;28;20040;-70
2023/04/11 02:56:12;;;;;;;4.85;3.97;;;;;;;12.39;54.59;100301.09;5042931;28;20048;-70
2023/04/11 02:58:40;;;;;;;5.63;4.07;;;;;;;12.28;54.56;100279.41;5059448;28;20499;-70
2023/04/11 03:01:06;;;;;;;5.07;3.80;;;;;;;12.09;55.73;100294.75;5058930;28;20048;-69
2023/04/11 03:03:33;;;;;;;6.55;4.18;;;;;;;12.29;55.31;100299.97;5058670;28;20051;-70
2023/04/11 03:05:58;;;;;;;6.75;4.30;;;;;;;12.30;54.59;100269.22;5060928;28;20429;-70
2023/04/11 03:08:24;;;;;;;6.13;4.22;;;;;;;12.18;55.04;100258.34;5061120;28;20050;-70
2023/04/11 03:10:49;;;;;;;5.65;4.28;;;;;;;12.09;56.02;100279.41;5025864;28;20021;-70
2023/04/11 03:13:15;;;;;;;7.35;4.53;;;;;;;12.29;55.64;100268.41;5059920;28;20029;-69
2023/04/11 03:15:40;;;;;;;6.72;3.90;;;;;;;12.34;55.07;100275.81;5041922;28;20033;-70
2023/04/11 03:18:06;;;;;;;7.57;3.97;;;;;;;12.28;55.66;100266.75;5058206;28;20450;-70
2023/04/11 03:20:31;;;;;;;4.43;3.53;;;;;;;12.36;55.10;100262.94;5060041;28;20133;-70
2023/04/11 03:22:56;;;;;;;6.25;4.20;;;;;;;12.41;55.11;100252.28;5060123;28;20476;-69
2023/04/11 03:25:22;;;;;;;5.65;4.20;;;;;;;12.36;55.39;100252.97;5059969;28;20040;-70
2023/04/11 03:27:47;;;;;;;5.93;4.30;;;;;;;12.29;55.37;100254.09;5057078;28;20029;-69
2023/04/11 03:30:13;;;;;;;7.63;4.03;;;;;;;12.19;55.59;100235.72;5041113;28;20032;-70
2023/04/11 03:32:38;;;;;;;5.32;3.92;;;;;;;12.39;55.40;100252.53;5057520;28;20033;-69
2023/04/11 03:35:04;;;;;;;7.63;4.30;;;;;;;12.51;55.04;100239.09;5058956;28;20048;-69
2023/04/11 03:37:30;;;;;;;5.22;3.92;;;;;;;12.02;56.63;100231.94;5058388;28;20036;-70
2023/04/11 03:39:55;;;;;;;6.93;4.70;;;;;;;12.34;55.52;100222.69;5059412;28;20083;-70
2023/04/11 03:42:20;;;;;;;8.35;4.70;;;;;;;12.63;54.58;100228.38;5058502;28;20033;-70
2023/04/11 03:44:46;;;;;;;6.05;4.22;;;;;;;12.06;56.35;100207.03;5057323;28;20084;-69
2023/04/11 03:47:11;;;;;;;6.07;4.25;;;;;;;12.41;55.53;100225.31;5058272;28;20029;-70
2023/04/11 03:49:37;;;;;;;6.25;4.70;;;;;;;12.52;55.24;100221.88;5059658;28;20504;-70
2023/04/11 03:52:03;;;;;;;5.82;4.43;;;;;;;12.28;56.29;100210.09;5059810;28;20100;-70
2023/04/11 03:54:29;;;;;;;6.25;4.35;;;;;;;12.10;56.59;100193.91;5059983;28;20392;-70
2023/04/11 03:56:54;;;;;;;7.40;4.50;;;;;;;12.54;55.56;100214.34;5041023;28;20096;-70
2023/04/11 03:59:20;;;;;;;5.85;4.43;;;;;;;12.53;55.85;100217.28;5041877;28;20021;-69
2023/04/11 04:01:45;;;;;;;7.07;4.97;;;;;;;12.29;57.34;100216.34;5041261;28;20035;-70
2023/04/11 04:04:10;;;;;;;8.60;4.78;;;;;;;12.59;56.48;100211.81;5057099;28;20040;-69
2023/04/11 04:06:36;;;;;;;6.95;4.55;;;;;;;12.43;57.42;100205.16;5059419;28;20025;-70
2023/04/11 04:09:03;;;;;;;6.72;4.72;;;;;;;12.48;57.51;100209.03;5058713;28;20043;-69
2023/04/11 04:11:28;;;;;;;11.90;4.68;;;;;;;12.28;58.00;100195.78;5059273;28;20025;-70
2023/04/11 04:13:54;;;;;;;6.50;4.85;;;;;;;12.20;58.25;100200.44;5056865;28;20036;-69
2023/04/11 04:16:19;;;;;;;6.80;4.75;;;;;;;12.33;58.43;100207.56;5056311;28;20029;-70
2023/04/11 04:18:45;;;;;;;6.97;4.50;;;;;;;11.92;60.19;100190.16;5057776;28;20056;-70
2023/04/11 04:21:11;;;;;;;7.13;4.82;;;;;;;12.11;60.16;100201.78;5057251;28;20462;-70
2023/04/11 04:23:38;;;;;;;8.32;4.85;;;;;;;11.90;61.11;100194.13;5063919;28;20039;-70
2023/04/11 04:26:04;;;;;;;11.57;4.93;;;;;;;12.15;60.22;100194.91;5077756;28;20101;-69
2023/04/11 04:28:29;;;;;;;7.90;5.13;;;;;;;12.05;60.87;100185.66;5057132;28;20045;-70
2023/04/11 04:30:56;;;;;;;6.88;5.10;;;;;;;12.11;60.66;100180.19;5057064;28;20071;-69
2023/04/11 04:33:22;;;;;;;8.23;5.28;;;;;;;11.79;62.86;100175.94;5055669;28;20028;-70
2023/04/11 04:35:50;;;;;;;8.77;5.10;;;;;;;11.84;62.19;100184.19;5058141;28;20051;-69
2023/04/11 04:38:18;;;;;;;7.88;5.13;;;;;;;12.03;61.75;100175.13;5058187;28;20113;-69
2023/04/11 04:40:44;;;;;;;7.88;5.60;;;;;;;12.12;61.13;100157.59;5057856;28;20141;-70
2023/04/11 04:43:17;;;;;;;7.38;5.45;;;;;;;12.25;60.77;100163.88;5056962;28;20036;-70
2023/04/11 04:45:45;;;;;;;7.05;5.18;;;;;;;11.89;62.44;100158.25;5041068;28;20032;-69
2023/04/11 04:48:15;;;;;;;8.75;4.85;;;;;;;12.01;62.27;100163.72;5056955;28;20029;-69
2023/04/11 04:50:42;;;;;;;9.88;5.30;;;;;;;12.15;61.58;100167.94;5063496;28;20040;-70
2023/04/11 04:53:07;;;;;;;7.93;5.28;;;;;;;11.96;62.45;100163.56;5061305;28;20056;-69
2023/04/11 04:55:33;;;;;;;7.45;5.53;;;;;;;11.91;61.86;100144.53;5056121;28;20032;-70
2023/04/11 04:57:58;;;;;;;8.73;5.13;;;;;;;12.12;61.55;100162.13;5056325;28;20213;-70
2023/04/11 05:00:24;;;;;;;8.13;5.25;;;;;;;12.23;61.88;100172.19;5056304;28;20037;-69
2023/04/11 05:02:53;;;;;;;10.93;5.85;;;;;;;12.27;61.79;100161.78;5061992;28;20392;-69
2023/04/11 05:05:19;;;;;;;9.27;6.15;;;;;;;12.17;62.83;100162.31;5060779;28;20091;-69
2023/04/11 05:07:44;;;;;;;8.60;6.15;;;;;;;12.15;63.36;100161.69;5071430;28;20037;-69
2023/04/11 05:10:10;;;;;;;8.98;5.85;;;;;;;12.18;63.73;100164.75;5062666;28;20033;-69
2023/04/11 05:12:35;;;;;;;9.27;5.80;;;;;;;12.15;64.03;100162.53;5059642;28;20017;-69
2023/04/11 05:15:00;;;;;;;9.82;6.10;;;;;;;11.98;64.97;100150.69;5060393;28;20021;-69
2023/04/11 05:17:26;;;;;;;7.90;5.07;;;;;;;11.72;66.95;100155.28;5061320;28;20047;-69
2023/04/11 05:19:51;;;;;;;12.35;6.28;;;;;;;11.94;65.87;100139.53;5059943;28;20392;-69
2023/04/11 05:22:17;;;;;;;8.25;6.55;;;;;;;12.05;65.78;100148.72;5062095;28;20029;-69
2023/04/11 05:24:42;;;;;;;9.93;6.50;;;;;;;11.89;66.84;100143.97;5060497;28;20096;-69
2023/04/11 05:27:08;;;;;;;11.10;6.60;;;;;;;11.64;68.98;100147.47;5061013;28;20029;-69
2023/04/11 05:29:33;;;;;;;9.52;6.70;;;;;;;11.95;67.34;100140.34;5060208;28;20074;-69
2023/04/11 05:31:58;;;;;;;10.18;6.38;;;;;;;12.08;66.78;100132.09;5066111;28;20025;-69
2023/04/11 05:34:24;;;;;;;7.75;6.55;;;;;;;11.76;69.02;100142.19;5049705;28;20033;-69
2023/04/11 05:36:49;;;;;;;10.13;6.55;;;;;;;12.06;67.66;100144.19;5043337;28;20408;-69
2023/04/11 05:39:15;;;;;;;9.85;6.47;;;;;;;11.74;69.45;100133.50;5042331;28;20154;-69
2023/04/11 05:41:40;;;;;;;8.32;6.40;;;;;;;11.90;68.93;100137.50;5059901;28;20055;-69
2023/04/11 05:44:06;;;;;;;14.25;7.05;;;;;;;11.88;69.90;100139.59;5061675;28;20032;-69
2023/04/11 05:46:35;;;;;;;13.50;6.80;;;;;;;12.01;68.55;100119.75;5060359;28;20033;-69
2023/04/11 05:49:01;;;;;;;9.20;6.65;;;;;;;12.08;68.70;100132.09;5065458;28;20025;-69
2023/04/11 05:51:26;;;;;;;11.07;7.32;;;;;;;11.97;69.56;100132.88;5073998;28;20043;-70
2023/04/11 05:53:52;;;;;;;8.50;6.55;;;;;;;11.96;69.62;100123.13;5061061;28;20021;-69
2023/04/11 05:56:17;;;;;;;12.45;6.95;;;;;;;11.99;69.84;100130.78;5056287;28;20521;-69
2023/04/11 05:58:43;;;;;;;11.57;7.00;;;;;;;11.75;71.47;100127.91;5044099;28;20502;-69
2023/04/11 06:01:13;;;;;;;13.25;6.82;;;;;;;11.60;71.85;100105.03;5059893;28;20025;-69
2023/04/11 06:03:38;;;;;;;9.10;7.00;;;;;;;11.98;70.92;100123.72;5057043;28;20036;-69
2023/04/11 06:06:04;;;;;;;13.70;6.95;;;;;;;12.12;70.62;100114.44;5060160;28;20029;-69
2023/04/11 06:08:30;;;;;;;12.77;7.55;;;;;;;11.87;71.79;100090.25;5062298;28;20132;-69
2023/04/11 06:10:55;;;;;;;11.32;7.05;;;;;;;12.02;72.42;100113.31;5043405;28;20483;-69
2023/04/11 06:13:21;;;;;;;11.98;7.85;;;;;;;11.99;72.37;100130.78;5060943;28;20036;-69
2023/04/11 06:15:46;;;;;;;11.63;6.75;;;;;;;11.93;72.74;100129.78;5059204;28;20095;-69
2023/04/11 06:18:12;;;;;;;13.13;7.95;;;;;;;11.95;73.21;100135.78;5059421;28;20029;-69
2023/04/11 06:20:37;;;;;;;13.00;8.35;;;;;;;11.97;73.19;100133.69;5058241;28;20036;-69
2023/04/11 06:23:03;;;;;;;11.82;8.27;;;;;;;12.08;72.57;100126.72;5059547;28;20021;-69
2023/04/11 06:25:28;;;;;;;10.63;7.43;;;;;;;11.84;74.08;100124.91;5060630;28;20037;-69
2023/04/11 06:27:54;;;;;;;10.15;7.35;;;;;;;11.51;76.29;100105.31;5042762;28;20040;-69
2023/04/11 06:30:19;;;;;;;12.82;8.38;;;;;;;11.92;73.91;100120.06;5061018;28;20039;-69
2023/04/11 06:32:45;;;;;;;11.88;7.88;;;;;;;11.98;73.97;100111.06;5060787;28;20035;-69
2023/04/11 06:35:10;;;;;;;11.73;7.97;;;;;;;12.10;74.27;100111.13;5062826;28;20059;-69
2023/04/11 06:37:36;;;;;;;11.02;8.35;;;;;;;12.12;74.30;100109.06;5056287;28;20033;-70
2023/04/11 06:40:04;;;;;;;11.77;8.63;;;;;;;12.21;74.66;100107.66;5051657;28;20033;-69
2023/04/11 06:42:29;;;;;;;12.32;9.15;;;;;;;11.89;76.08;100084.66;5059467;28;20036;-70
2023/04/11 06:44:55;;;;;;;11.77;9.32;;;;;;;12.29;74.87;100111.94;5064129;28;20029;-70
2023/04/11 06:47:20;;;;;;;13.57;9.32;;;;;;;12.25;75.25;100101.81;5065111;28;20136;-69
2023/04/11 06:49:46;;;;;;;11.25;9.13;;;;;;;12.43;75.11;100118.00;5063844;28;20029;-69
2023/04/11 06:52:11;;;;;;;11.35;9.48;;;;;;;12.41;75.55;100120.06;5047684;28;20025;-69
2023/04/11 06:54:36;;;;;;;13.65;9.70;;;;;;;12.07;77.83;100113.47;5063643;28;20035;-69
2023/04/11 06:57:02;;;;;;;13.02;10.25;;;;;;;12.20;76.98;100111.41;5064446;28;20143;-69
2023/04/11 06:59:27;;;;;;;14.13;9.45;;;;;;;12.32;76.75;100118.78;5064981;28;20080;-69
2023/04/11 07:01:53;;;;;;;10.68;9.20;;;;;;;12.20;77.36;100121.41;5062859;28;20036;-69
2023/04/11 07:04:18;;;;;;;13.80;10.27;;;;;;;12.21;77.43;100114.94;5058610;28;20539;-69
2023/04/11 07:06:44;;;;;;;13.02;9.40;;;;;;;12.15;78.02;100103.22;5042995;28;20041;-68
2023/04/11 07:09:13;;;;;;;11.18;9.30;;;;;;;12.12;78.67;100109.06;5061313;28;20060;-69
2023/04/11 07:11:39;;;;;;;12.88;9.50;;;;;;;12.17;78.29;100111.06;5063953;28;20098;-69
2023/04/11 07:14:05;;;;;;;11.98;8.77;;;;;;;11.86;79.04;100087.78;5062387;28;20029;-69
2023/04/11 07:16:30;;;;;;;16.33;8.93;;;;;;;12.11;78.49;100106.56;5042091;28;20067;-69
2023/04/11 07:18:56;;;;;;;12.30;9.13;;;;;;;12.14;78.41;100112.31;5058370;28;20052;-69
2023/04/11 07:21:21;;;;;;;11.13;8.98;;;;;;;12.25;77.77;100109.91;5058837;28;20100;-69
2023/04/11 07:23:47;;;;;;;13.15;8.75;;;;;;;12.30;77.58;100129.78;5041239;28;20089;-69
2023/04/11 07:26:13;;;;;;;12.55;9.48;;;;;;;12.14;78.66;100120.41;5057327;28;20052;-69
2023/04/11 07:28:39;;;;;;;11.88;9.10;;;;;;;12.18;78.52;100132.38;5057293;28;20116;-69
2023/04/11 07:31:08;;;;;;;12.73;9.35;;;;;;;12.22;78.64;100128.22;5058536;28;20021;-70
2023/04/11 07:33:36;;;;;;;12.43;9.27;;;;;;;12.13;78.95;100129.56;5058149;28;20491;-69
2023/04/11 07:36:05;;;;;;;12.52;9.70;;;;;;;12.16;78.95;100126.41;5058805;28;20068;-69
2023/04/11 07:38:32;;;;;;;12.52;9.90;;;;;;;12.10;79.02;100130.00;5058954;28;20036;-69
2023/04/11 07:40:59;;;;;;;12.43;9.68;;;;;;;11.91;79.70;100117.56;5059141;28;20059;-69
2023/04/11 07:43:26;;;;;;;15.52;10.45;;;;;;;11.84;81.02;100128.44;5041745;28;20056;-69
2023/04/11 07:45:53;;;;;;;13.32;10.40;;;;;;;12.04;80.04;100139.00;5057912;28;20021;-69
2023/04/11 07:48:20;;;;;;;13.10;10.43;;;;;;;11.97;80.85;100127.47;5068416;28;20468;-69
2023/04/11 07:50:46;;;;;;;14.73;10.38;;;;;;;11.95;81.38;100129.56;5071177;28;20025;-70
2023/04/11 07:53:11;;;;;;;16.75;11.20;;;;;;;11.85;82.33;100123.88;5071314;28;20029;-69
2023/04/11 07:55:37;;;;;;;16.00;10.88;;;;;;;12.08;81.30;100118.63;5069560;28;20035;-69
2023/04/11 07:58:03;;;;;;;14.25;11.35;;;;;;;12.05;81.51;100124.47;5057819;28;20100;-70
2023/04/11 08:00:32;;;;;;;16.70;10.82;;;;;;;12.13;81.60;100128.75;5041474;28;20029;-69
2023/04/11 08:03:04;;;;;;;14.70;10.73;;;;;;;12.15;81.76;100130.19;5059717;28;20035;-70
2023/04/11 08:05:30;;;;;;;16.15;11.25;;;;;;;12.20;81.51;100124.09;5062794;28;20476;-69
2023/04/11 08:07:56;;;;;;;17.42;11.82;;;;;;;12.07;82.46;100127.75;5058779;28;20029;-70
2023/04/11 08:10:22;;;;;;;13.75;11.30;;;;;;;12.16;82.03;100131.81;5058266;28;20029;-69
2023/04/11 08:12:48;;;;;;;15.57;11.70;;;;;;;12.17;81.89;100128.06;5058659;28;20126;-70
2023/04/11 08:15:14;;;;;;;17.85;11.73;;;;;;;11.98;83.37;100129.94;5061353;28;20029;-70
2023/04/11 08:17:42;;;;;;;13.75;11.40;;;;;;;12.03;83.63;100131.97;5063557;28;20063;-70
2023/04/11 08:20:12;;;;;;;15.07;12.05;;;;;;;12.10;83.39;100121.09;5063264;28;20049;-70
2023/04/11 08:22:38;;;;;;;14.20;11.15;;;;;;;11.93;84.58;100119.00;5062532;28;20103;-69
2023/04/11 08:25:07;;;;;;;16.02;12.70;;;;;;;12.04;83.98;100120.13;5063644;28;20059;-69
2023/04/11 08:27:32;;;;;;;19.23;12.48;;;;;;;11.86;85.16;100120.16;5061989;28;20024;-69
2023/04/11 08:29:58;;;;;;;16.52;11.90;;;;;;;12.16;84.04;100104.84;5056904;28;20446;-70
2023/04/11 08:32:23;;;;;;;14.32;11.88;;;;;;;12.14;83.51;100096.16;5043908;28;20021;-69
2023/04/11 08:34:49;;;;;;;17.92;11.90;;;;;;;12.07;84.10;100081.94;5064919;28;20043;-70
2023/04/11 08:37:14;;;;;;;17.23;12.20;;;;;;;12.21;84.43;100107.66;5061244;28;20032;-69
2023/04/11 08:39:40;;;;;;;17.67;12.27;;;;;;;12.20;85.08;100113.31;5029894;28;20396;-70
2023/04/11 08:42:05;;;;;;;18.58;13.10;;;;;;;12.11;85.93;100112.78;5061097;28;20029;-69
2023/04/11 08:44:31;;;;;;;14.55;12.10;;;;;;;11.88;88.12;100121.53;5060937;28;20029;-70
2023/04/11 08:46:56;;;;;;;21.45;13.05;;;;;;;11.99;86.68;100118.13;5063887;28;20071;-70
2023/04/11 08:49:21;;;;;;;16.48;12.65;;;;;;;12.06;86.28;100126.13;5052699;28;20036;-70
2023/04/11 08:51:47;;;;;;;17.58;13.23;;;;;;;11.80;88.59;100124.53;5061140;28;20480;-69
2023/04/11 08:54:14;;;;;;;18.85;13.00;;;;;;;11.80;86.94;100105.66;5042094;28;20024;-69
2023/04/11 08:56:41;;;;;;;20.08;13.55;;;;;;;11.86;87.44;100133.63;5059102;28;20472;-69
2023/04/11 08:59:07;;;;;;;17.27;13.00;;;;;;;11.90;87.17;100124.84;5060916;28;20035;-70
2023/04/11 09:01:33;;;;;;;19.77;13.63;;;;;;;11.78;88.78;100140.06;5047150;28;20033;-69
2023/04/11 09:04:01;;;;;;;18.08;13.27;;;;;;;11.81;88.38;100138.81;5068609;28;20029;-69
2023/04/11 09:06:31;;;;;;;21.95;13.32;;;;;;;11.63;89.88;100135.06;5061225;28;20033;-69
2023/04/11 09:09:05;;;;;;;21.33;14.07;;;;;;;11.74;89.20;100133.50;5061902;28;20040;-69
2023/04/11 09:11:50;;;;;;;20.15;13.90;;;;;;;11.93;88.07;100137.88;5059841;28;20029;-69
2023/04/11 09:14:16;;;;;;;23.38;14.75;;;;;;;11.82;88.80;100135.06;5063605;28;20422;-69
2023/04/11 09:16:56;;;;;;;19.05;15.00;;;;;;;11.94;87.89;100141.41;5046024;28;20094;-69
2023/04/11 09:19:26;;;;;;;17.67;14.13;;;;;;;12.05;87.45;100134.44;5063242;28;20059;-69
2023/04/11 09:21:53;;;;;;;19.63;15.15;;;;;;;11.94;87.62;100111.75;5062061;28;20040;-69
2023/04/11 09:24:18;;;;;;;19.40;14.45;;;;;;;12.02;87.28;100130.34;5061506;28;20032;-69
2023/04/11 09:26:44;;;;;;;19.63;15.45;;;;;;;11.98;88.62;100127.22;5045684;28;20122;-69
2023/04/11 09:29:09;;;;;;;20.67;14.77;;;;;;;12.01;88.45;100127.84;5061770;28;20029;-69
2023/04/11 09:31:44;;;;;;;19.50;15.30;;;;;;;12.17;87.92;100121.84;5060045;28;20094;-69
2023/04/11 09:34:22;;;;;;;;;;;;;;;12.07;87.78;100116.97;5058316;28;20060;-69
2023/04/11 09:36:53;;;;;;;20.40;14.52;;;;;;;12.07;88.11;100111.59;5056744;28;19931;-69
2023/04/11 09:39:19;;;;;;;19.65;15.75;;;;;;;12.15;88.00;100115.84;5054948;28;20037;-69
2023/04/11 09:41:45;;;;;;;22.40;16.17;;;;;;;12.16;87.90;100114.81;5059285;28;20039;-70
2023/04/11 09:44:11;;;;;;;23.92;15.95;;;;;;;12.25;87.92;100113.47;5070459;28;20105;-69
2023/04/11 09:46:36;;;;;;;21.35;15.88;;;;;;;12.37;87.87;100110.81;5058943;28;20040;-69
2023/04/11 09:49:02;;;;;;;18.67;14.60;;;;;;;12.44;88.01;100116.94;5038706;28;20124;-69
2023/04/11 09:51:28;;;;;;;20.00;15.70;;;;;;;12.32;89.11;100108.81;5062411;28;20025;-69
2023/04/11 09:53:56;;;;;;;16.83;14.15;;;;;;;12.45;88.74;100118.59;5063182;28;20040;-69
2023/04/11 09:56:25;;;;;;;20.05;14.68;;;;;;;12.46;88.88;100122.94;5065874;28;20025;-69
2023/04/11 09:58:51;;;;;;;19.30;13.77;;;;;;;12.02;89.09;100062.06;5067728;28;20026;-69
2023/04/11 10:01:18;;;;;;;17.40;13.35;;;;;;;12.39;89.40;100124.91;5065516;28;20052;-69
2023/04/11 10:03:46;;;;;;;19.25;13.45;;;;;;;12.21;89.98;100134.63;5065113;28;20029;-69
2023/04/11 10:06:19;;;;;;;18.27;14.00;;;;;;;12.16;90.32;100134.50;5064990;28;20025;-68
2023/04/11 10:08:46;;;;;;;20.00;14.52;;;;;;;12.17;90.83;100141.53;5065508;28;20025;-69
2023/04/11 10:11:13;;;;;;;21.67;15.70;;;;;;;12.08;89.98;100125.88;5066162;28;20025;-69
2023/04/11 10:13:45;;;;;;;25.02;16.70;;;;;;;12.07;90.71;100145.81;5048111;28;20060;-69
2023/04/11 10:16:16;;;;;;;25.15;16.45;;;;;;;12.08;91.10;100142.88;5064447;28;20063;-69
2023/04/11 10:18:53;;;;;;;26.73;18.13;;;;;;;12.10;91.32;100154.28;5064979;28;20064;-69
2023/04/11 10:21:35;;;;;;;27.23;16.83;;;;;;;12.15;91.19;100151.75;5062860;28;20029;-69
2023/04/11 10:24:15;;;;;;;26.35;17.20;;;;;;;11.96;92.16;100136.63;5061561;28;20024;-69
2023/04/11 10:27:02;;;;;;;27.08;18.23;;;;;;;12.12;91.56;100152.19;5063527;28;20186;-69
2023/04/11 10:29:27;;;;;;;26.95;18.83;;;;;;;12.13;91.19;100156.53;5075838;28;20036;-69
2023/04/11 10:32:15;;;;;;;29.65;19.15;;;;;;;12.27;91.18;100153.69;5064304;28;20419;-69
2023/04/11 10:34:49;;;;;;;28.85;18.60;;;;;;;12.18;92.33;100147.75;5058529;28;20036;-69
2023/04/11 10:37:16;;;;;;;29.73;19.33;;;;;;;12.28;91.38;100145.34;5061423;28;20028;-69
2023/04/11 10:39:56;;;;;;;28.90;18.45;;;;;;;12.33;92.11;100158.19;5060076;28;20037;-69
2023/04/11 10:42:32;;;;;;;29.05;19.30;;;;;;;12.41;91.14;100145.19;5060210;28;20029;-69
2023/04/11 10:45:26;;;;;;;29.38;19.25;;;;;;;12.40;91.16;100148.13;5059413;28;20021;-69
2023/04/11 10:48:10;;;;;;;28.73;19.15;;;;;;;12.40;91.71;100158.91;5058067;28;20128;-69
2023/04/11 10:50:44;;;;;;;28.27;18.77;;;;;;;12.34;91.61;100163.31;5058217;28;20035;-69
2023/04/11 10:53:35;;;;;;;29.17;18.52;;;;;;;12.23;92.46;100167.63;5060331;28;20025;-69
2023/04/11 10:56:01;;;;;;;29.92;17.95;;;;;;;12.22;91.84;100148.97;5059680;28;20020;-68
2023/04/11 10:58:34;;;;;;;31.25;18.95;;;;;;;12.37;91.83;100164.75;5058812;28;20093;-68
2023/04/11 11:00:59;;;;;;;32.42;18.83;;;;;;;12.41;91.94;100168.66;5058040;28;20025;-69
2023/04/11 11:03:29;;;;;;;29.83;18.35;;;;;;;12.54;91.21;100167.66;5059354;28;20028;-69
2023/04/11 11:05:58;;;;;;;27.60;18.20;;;;;;;12.58;91.28;100161.59;5058700;28;20405;-69
2023/04/11 11:08:41;;;;;;;31.25;17.85;;;;;;;12.55;91.62;100163.91;5059302;28;20387;-69
2023/04/11 11:11:08;;;;;;;24.45;15.60;;;;;;;12.40;91.16;100140.84;5058091;28;20121;-69
2023/04/11 11:13:41;;;;;;;26.70;15.35;;;;;;;12.48;91.94;100165.88;5057932;28;20049;-69
2023/04/11 11:16:07;;;;;;;24.40;15.00;;;;;;;12.34;91.63;100143.63;5060635;28;20055;-69
2023/04/11 11:18:33;;;;;;;26.95;13.77;;;;;;;12.34;91.42;100149.03;5059236;28;20053;-69